sensor_id;sensor_type;location;lat;lon;timestamp;temperature;humidity
59307;DHT22;47983;53.016;-2.260;2023-11-21T00:01:00;9.90;99.90
59307;DHT22;47983;53.016;-2.260;2023-11-21T00:03:31;9.90;99.90
59307;DHT22;47983;53.016;-2.260;2023-11-21T00:05:59;9.90;99.90
59307;DHT22;47983;53.016;-2.260;2023-11-21T00:08:28;9.90;99.90
59307;DHT22;47983;53.016;-2.260;2023-11-21T00:10:58;9.90;99.90
59307;DHT22;47983;53.016;-2.260;2023-11-21T00:13:28;9.90;99.90
59307;DHT22;47983;53.016;-2.260;2023-11-21T00:15:55;9.90;99.90
59307;DHT22;47983;53.016;-2.260;2023-11-21T00:18:24;9.90;99.90
59307;DHT22;47983;53.016;-2.260;2023-11-21T00:20:52;9.90;99.90
59307;DHT22;47983;53.016;-2.260;2023-11-21T00:23:19;9.90;99.90
59307;DHT22;47983;53.016;-2.260;2023-11-21T00:25:47;9.90;99.90
59307;DHT22;47983;53.016;-2.260;2023-11-21T00:28:15;9.80;99.90
59307;DHT22;47983;53.016;-2.260;2023-11-21T00:30:43;9.80;99.90
59307;DHT22;47983;53.016;-2.260;2023-11-21T00:33:11;9.80;99.90
59307;DHT22;47983;53.016;-2.260;2023-11-21T00:35:39;9.80;99.90
59307;DHT22;47983;53.016;-2.260;2023-11-21T00:38:06;9.70;99.90
59307;DHT22;47983;53.016;-2.260;2023-11-21T00:40:36;9.70;99.90
59307;DHT22;47983;53.016;-2.260;2023-11-21T00:43:04;9.70;99.90
59307;DHT22;47983;53.016;-2.260;2023-11-21T00:45:33;9.70;99.90
59307;DHT22;47983;53.016;-2.260;2023-11-21T00:48:00;9.70;99.90
59307;DHT22;47983;53.016;-2.260;2023-11-21T00:50:28;9.70;99.90
59307;DHT22;47983;53.016;-2.260;2023-11-21T00:52:56;9.70;99.90
59307;DHT22;47983;53.016;-2.260;2023-11-21T00:55:24;9.70;99.90
59307;DHT22;47983;53.016;-2.260;2023-11-21T00:57:53;9.60;99.90
59307;DHT22;47983;53.016;-2.260;2023-11-21T01:00:21;9.60;99.90
59307;DHT22;47983;53.016;-2.260;2023-11-21T01:02:49;9.60;99.90
59307;DHT22;47983;53.016;-2.260;2023-11-21T01:05:17;9.60;99.90
59307;DHT22;47983;53.016;-2.260;2023-11-21T01:07:46;9.60;99.90
59307;DHT22;47983;53.016;-2.260;2023-11-21T01:10:14;9.60;99.90
59307;DHT22;47983;53.016;-2.260;2023-11-21T01:12:41;9.60;99.90
59307;DHT22;47983;53.016;-2.260;2023-11-21T01:15:10;9.60;99.90
59307;DHT22;47983;53.016;-2.260;2023-11-21T01:17:39;9.60;99.90
59307;DHT22;47983;53.016;-2.260;2023-11-21T01:20:08;9.50;99.90
59307;DHT22;47983;53.016;-2.260;2023-11-21T01:22:41;9.50;99.90
59307;DHT22;47983;53.016;-2.260;2023-11-21T01:25:09;9.50;99.90
59307;DHT22;47983;53.016;-2.260;2023-11-21T01:27:38;9.50;99.90
59307;DHT22;47983;53.016;-2.260;2023-11-21T01:30:06;9.40;99.90
59307;DHT22;47983;53.016;-2.260;2023-11-21T01:32:35;9.40;99.90
59307;DHT22;47983;53.016;-2.260;2023-11-21T01:35:03;9.40;99.90
59307;DHT22;47983;53.016;-2.260;2023-11-21T01:37:33;9.40;99.90
59307;DHT22;47983;53.016;-2.260;2023-11-21T01:40:02;9.40;99.90
59307;DHT22;47983;53.016;-2.260;2023-11-21T01:42:33;9.30;99.90
59307;DHT22;47983;53.016;-2.260;2023-11-21T01:45:01;9.30;99.90
59307;DHT22;47983;53.016;-2.260;2023-11-21T01:47:33;9.30;99.90
59307;DHT22;47983;53.016;-2.260;2023-11-21T01:50:02;9.30;99.90
59307;DHT22;47983;53.016;-2.260;2023-11-21T01:52:32;9.30;99.90
59307;DHT22;47983;53.016;-2.260;2023-11-21T01:55:02;9.20;99.90
59307;DHT22;47983;53.016;-2.260;2023-11-21T01:57:30;9.20;99.90
59307;DHT22;47983;53.016;-2.260;2023-11-21T01:59:58;9.20;99.90
59307;DHT22;47983;53.016;-2.260;2023-11-21T02:02:28;9.20;99.90
59307;DHT22;47983;53.016;-2.260;2023-11-21T02:04:56;9.20;99.90
59307;DHT22;47983;53.016;-2.260;2023-11-21T02:07:24;9.10;99.90
59307;DHT22;47983;53.016;-2.260;2023-11-21T02:09:52;9.10;99.90
59307;DHT22;47983;53.016;-2.260;2023-11-21T02:12:21;9.10;99.90
59307;DHT22;47983;53.016;-2.260;2023-11-21T02:14:49;9.10;99.90
59307;DHT22;47983;53.016;-2.260;2023-11-21T02:17:18;9.10;99.90
59307;DHT22;47983;53.016;-2.260;2023-11-21T02:19:46;9.10;99.90
59307;DHT22;47983;53.016;-2.260;2023-11-21T02:22:18;9.10;99.90
59307;DHT22;47983;53.016;-2.260;2023-11-21T02:24:47;9.10;99.90
59307;DHT22;47983;53.016;-2.260;2023-11-21T02:27:15;9.10;99.90
59307;DHT22;47983;53.016;-2.260;2023-11-21T02:29:48;9.10;99.90
59307;DHT22;47983;53.016;-2.260;2023-11-21T02:32:16;9.10;99.90
59307;DHT22;47983;53.016;-2.260;2023-11-21T02:34:46;9.10;99.90
59307;DHT22;47983;53.016;-2.260;2023-11-21T02:37:14;9.10;99.90
59307;DHT22;47983;53.016;-2.260;2023-11-21T02:39:43;9.10;99.90
59307;DHT22;47983;53.016;-2.260;2023-11-21T02:42:12;9.10;99.90
59307;DHT22;47983;53.016;-2.260;2023-11-21T02:44:39;9.10;99.90
59307;DHT22;47983;53.016;-2.260;2023-11-21T02:47:07;9.00;99.90
59307;DHT22;47983;53.016;-2.260;2023-11-21T02:49:36;9.00;99.90
59307;DHT22;47983;53.016;-2.260;2023-11-21T02:52:04;9.00;99.90
59307;DHT22;47983;53.016;-2.260;2023-11-21T02:54:32;9.00;99.90
59307;DHT22;47983;53.016;-2.260;2023-11-21T02:57:03;9.00;99.90
59307;DHT22;47983;53.016;-2.260;2023-11-21T02:59:31;9.00;99.90
59307;DHT22;47983;53.016;-2.260;2023-11-21T03:01:59;9.00;99.90
59307;DHT22;47983;53.016;-2.260;2023-11-21T03:04:27;9.00;99.90
59307;DHT22;47983;53.016;-2.260;2023-11-21T03:06:55;8.90;99.90
59307;DHT22;47983;53.016;-2.260;2023-11-21T03:09:23;8.90;99.90
59307;DHT22;47983;53.016;-2.260;2023-11-21T03:11:51;8.90;99.90
59307;DHT22;47983;53.016;-2.260;2023-11-21T03:14:19;8.90;99.90
59307;DHT22;47983;53.016;-2.260;2023-11-21T03:16:47;8.90;99.90
59307;DHT22;47983;53.016;-2.260;2023-11-21T03:19:15;8.90;99.90
59307;DHT22;47983;53.016;-2.260;2023-11-21T03:21:43;8.90;99.90
59307;DHT22;47983;53.016;-2.260;2023-11-21T03:24:10;8.90;99.90
59307;DHT22;47983;53.016;-2.260;2023-11-21T03:26:38;8.90;99.90
59307;DHT22;47983;53.016;-2.260;2023-11-21T03:29:06;8.90;99.90
59307;DHT22;47983;53.016;-2.260;2023-11-21T03:31:34;8.90;99.90
59307;DHT22;47983;53.016;-2.260;2023-11-21T03:34:02;8.90;99.90
59307;DHT22;47983;53.016;-2.260;2023-11-21T03:36:29;8.90;99.90
59307;DHT22;47983;53.016;-2.260;2023-11-21T03:38:58;8.90;99.90
59307;DHT22;47983;53.016;-2.260;2023-11-21T03:41:25;8.90;99.90
59307;DHT22;47983;53.016;-2.260;2023-11-21T03:43:54;8.80;99.90
59307;DHT22;47983;53.016;-2.260;2023-11-21T03:46:21;8.80;99.90
59307;DHT22;47983;53.016;-2.260;2023-11-21T03:48:49;8.80;99.90
59307;DHT22;47983;53.016;-2.260;2023-11-21T03:51:16;8.80;99.90
59307;DHT22;47983;53.016;-2.260;2023-11-21T03:53:44;8.80;99.90
59307;DHT22;47983;53.016;-2.260;2023-11-21T03:56:13;8.80;99.90
59307;DHT22;47983;53.016;-2.260;2023-11-21T03:58:41;8.80;99.90
59307;DHT22;47983;53.016;-2.260;2023-11-21T04:01:08;8.80;99.90
59307;DHT22;47983;53.016;-2.260;2023-11-21T04:03:37;8.80;99.90
59307;DHT22;47983;53.016;-2.260;2023-11-21T04:06:06;8.80;99.90
59307;DHT22;47983;53.016;-2.260;2023-11-21T04:08:34;8.80;99.90
59307;DHT22;47983;53.016;-2.260;2023-11-21T04:11:01;8.80;99.90
59307;DHT22;47983;53.016;-2.260;2023-11-21T04:13:29;8.80;99.90
59307;DHT22;47983;53.016;-2.260;2023-11-21T04:15:58;8.70;99.90
59307;DHT22;47983;53.016;-2.260;2023-11-21T04:18:25;8.70;99.90
59307;DHT22;47983;53.016;-2.260;2023-11-21T04:20:53;8.70;99.90
59307;DHT22;47983;53.016;-2.260;2023-11-21T04:23:21;8.70;99.90
59307;DHT22;47983;53.016;-2.260;2023-11-21T04:25:49;8.70;99.90
59307;DHT22;47983;53.016;-2.260;2023-11-21T04:28:18;8.70;99.90
59307;DHT22;47983;53.016;-2.260;2023-11-21T04:30:47;8.70;99.90
59307;DHT22;47983;53.016;-2.260;2023-11-21T04:33:14;8.70;99.90
59307;DHT22;47983;53.016;-2.260;2023-11-21T04:35:42;8.70;99.90
59307;DHT22;47983;53.016;-2.260;2023-11-21T04:38:10;8.60;99.90
59307;DHT22;47983;53.016;-2.260;2023-11-21T04:40:38;8.60;99.90
59307;DHT22;47983;53.016;-2.260;2023-11-21T04:43:06;8.60;99.90
59307;DHT22;47983;53.016;-2.260;2023-11-21T04:45:33;8.60;99.90
59307;DHT22;47983;53.016;-2.260;2023-11-21T04:48:02;8.60;99.90
59307;DHT22;47983;53.016;-2.260;2023-11-21T04:50:31;8.60;99.90
59307;DHT22;47983;53.016;-2.260;2023-11-21T04:53:00;8.60;99.90
59307;DHT22;47983;53.016;-2.260;2023-11-21T04:55:28;8.60;99.90
59307;DHT22;47983;53.016;-2.260;2023-11-21T04:57:56;8.60;99.90
59307;DHT22;47983;53.016;-2.260;2023-11-21T05:00:24;8.60;99.90
59307;DHT22;47983;53.016;-2.260;2023-11-21T05:02:51;8.50;99.90
59307;DHT22;47983;53.016;-2.260;2023-11-21T05:05:20;8.50;99.90
59307;DHT22;47983;53.016;-2.260;2023-11-21T05:07:48;8.50;99.90
59307;DHT22;47983;53.016;-2.260;2023-11-21T05:10:16;8.50;99.90
59307;DHT22;47983;53.016;-2.260;2023-11-21T05:12:44;8.50;99.90
59307;DHT22;47983;53.016;-2.260;2023-11-21T05:15:14;8.50;99.90
59307;DHT22;47983;53.016;-2.260;2023-11-21T05:17:42;8.50;99.90
59307;DHT22;47983;53.016;-2.260;2023-11-21T05:20:12;8.50;99.90
59307;DHT22;47983;53.016;-2.260;2023-11-21T05:22:41;8.50;99.90
59307;DHT22;47983;53.016;-2.260;2023-11-21T05:25:11;8.50;99.90
59307;DHT22;47983;53.016;-2.260;2023-11-21T05:27:40;8.40;99.90
59307;DHT22;47983;53.016;-2.260;2023-11-21T05:30:08;8.40;99.90
59307;DHT22;47983;53.016;-2.260;2023-11-21T05:32:40;8.40;99.90
59307;DHT22;47983;53.016;-2.260;2023-11-21T05:35:11;8.40;99.90
59307;DHT22;47983;53.016;-2.260;2023-11-21T05:37:41;8.40;99.90
59307;DHT22;47983;53.016;-2.260;2023-11-21T05:40:10;8.30;99.90
59307;DHT22;47983;53.016;-2.260;2023-11-21T05:42:39;8.30;99.90
59307;DHT22;47983;53.016;-2.260;2023-11-21T05:45:08;8.30;99.90
59307;DHT22;47983;53.016;-2.260;2023-11-21T05:47:41;8.20;99.90
59307;DHT22;47983;53.016;-2.260;2023-11-21T05:50:09;8.20;99.90
59307;DHT22;47983;53.016;-2.260;2023-11-21T05:52:46;8.10;99.90
59307;DHT22;47983;53.016;-2.260;2023-11-21T05:55:17;8.10;99.90
59307;DHT22;47983;53.016;-2.260;2023-11-21T05:57:45;8.00;99.90
59307;DHT22;47983;53.016;-2.260;2023-11-21T06:00:14;8.00;99.90
59307;DHT22;47983;53.016;-2.260;2023-11-21T06:02:49;7.90;99.90
59307;DHT22;47983;53.016;-2.260;2023-11-21T06:05:19;7.80;99.90
59307;DHT22;47983;53.016;-2.260;2023-11-21T06:07:47;7.90;99.90
59307;DHT22;47983;53.016;-2.260;2023-11-21T06:10:15;7.80;99.90
59307;DHT22;47983;53.016;-2.260;2023-11-21T06:12:45;7.80;99.90
59307;DHT22;47983;53.016;-2.260;2023-11-21T06:15:12;7.80;99.90
59307;DHT22;47983;53.016;-2.260;2023-11-21T06:17:46;7.80;99.90
59307;DHT22;47983;53.016;-2.260;2023-11-21T06:20:17;7.80;99.90
59307;DHT22;47983;53.016;-2.260;2023-11-21T06:22:46;7.80;99.90
59307;DHT22;47983;53.016;-2.260;2023-11-21T06:25:15;7.80;99.90
59307;DHT22;47983;53.016;-2.260;2023-11-21T06:27:45;7.80;99.90
59307;DHT22;47983;53.016;-2.260;2023-11-21T06:30:13;7.80;99.90
59307;DHT22;47983;53.016;-2.260;2023-11-21T06:32:41;7.80;99.90
59307;DHT22;47983;53.016;-2.260;2023-11-21T06:35:15;7.80;99.90
59307;DHT22;47983;53.016;-2.260;2023-11-21T06:37:44;7.80;99.90
59307;DHT22;47983;53.016;-2.260;2023-11-21T06:40:17;7.80;99.90
59307;DHT22;47983;53.016;-2.260;2023-11-21T06:42:46;7.80;99.90
59307;DHT22;47983;53.016;-2.260;2023-11-21T06:45:15;7.80;99.90
59307;DHT22;47983;53.016;-2.260;2023-11-21T06:47:43;7.70;99.90
59307;DHT22;47983;53.016;-2.260;2023-11-21T06:50:14;7.80;99.90
59307;DHT22;47983;53.016;-2.260;2023-11-21T06:52:42;7.80;99.90
59307;DHT22;47983;53.016;-2.260;2023-11-21T06:55:10;7.80;99.90
59307;DHT22;47983;53.016;-2.260;2023-11-21T06:57:38;7.70;99.90
59307;DHT22;47983;53.016;-2.260;2023-11-21T07:00:06;7.80;99.90
59307;DHT22;47983;53.016;-2.260;2023-11-21T07:02:37;7.80;99.90
59307;DHT22;47983;53.016;-2.260;2023-11-21T07:05:05;7.80;99.90
59307;DHT22;47983;53.016;-2.260;2023-11-21T07:07:33;7.70;99.90
59307;DHT22;47983;53.016;-2.260;2023-11-21T07:10:03;7.70;99.90
59307;DHT22;47983;53.016;-2.260;2023-11-21T07:12:31;7.70;99.90
59307;DHT22;47983;53.016;-2.260;2023-11-21T07:14:59;7.70;99.90
59307;DHT22;47983;53.016;-2.260;2023-11-21T07:17:28;7.70;99.90
59307;DHT22;47983;53.016;-2.260;2023-11-21T07:19:55;7.70;99.90
59307;DHT22;47983;53.016;-2.260;2023-11-21T07:22:23;7.70;99.90
59307;DHT22;47983;53.016;-2.260;2023-11-21T07:24:52;7.70;99.90
59307;DHT22;47983;53.016;-2.260;2023-11-21T07:27:22;7.70;99.90
59307;DHT22;47983;53.016;-2.260;2023-11-21T07:29:50;7.70;99.90
59307;DHT22;47983;53.016;-2.260;2023-11-21T07:32:18;7.80;99.90
59307;DHT22;47983;53.016;-2.260;2023-11-21T07:34:45;7.80;99.90
59307;DHT22;47983;53.016;-2.260;2023-11-21T07:37:13;7.80;99.90
59307;DHT22;47983;53.016;-2.260;2023-11-21T07:39:41;7.80;99.90
59307;DHT22;47983;53.016;-2.260;2023-11-21T07:42:12;7.80;99.90
59307;DHT22;47983;53.016;-2.260;2023-11-21T07:44:40;7.80;99.90
59307;DHT22;47983;53.016;-2.260;2023-11-21T07:47:10;7.90;99.90
59307;DHT22;47983;53.016;-2.260;2023-11-21T07:49:38;7.90;99.90
59307;DHT22;47983;53.016;-2.260;2023-11-21T07:52:09;7.90;99.90
59307;DHT22;47983;53.016;-2.260;2023-11-21T07:54:37;7.90;99.90
59307;DHT22;47983;53.016;-2.260;2023-11-21T07:57:05;7.90;99.90
59307;DHT22;47983;53.016;-2.260;2023-11-21T07:59:33;8.00;99.90
59307;DHT22;47983;53.016;-2.260;2023-11-21T08:02:00;8.00;99.90
59307;DHT22;47983;53.016;-2.260;2023-11-21T08:04:28;8.00;99.90
59307;DHT22;47983;53.016;-2.260;2023-11-21T08:06:59;8.00;99.90
59307;DHT22;47983;53.016;-2.260;2023-11-21T08:09:27;8.00;99.90
59307;DHT22;47983;53.016;-2.260;2023-11-21T08:11:55;8.10;99.90
59307;DHT22;47983;53.016;-2.260;2023-11-21T08:14:23;8.10;99.90
59307;DHT22;47983;53.016;-2.260;2023-11-21T08:16:52;8.10;99.90
59307;DHT22;47983;53.016;-2.260;2023-11-21T08:19:24;8.10;99.90
59307;DHT22;47983;53.016;-2.260;2023-11-21T08:21:52;8.10;99.90
59307;DHT22;47983;53.016;-2.260;2023-11-21T08:24:22;8.10;99.90
59307;DHT22;47983;53.016;-2.260;2023-11-21T08:26:50;8.20;99.90
59307;DHT22;47983;53.016;-2.260;2023-11-21T08:29:19;8.20;99.90
59307;DHT22;47983;53.016;-2.260;2023-11-21T08:31:47;8.20;99.90
59307;DHT22;47983;53.016;-2.260;2023-11-21T08:34:15;8.30;99.90
59307;DHT22;47983;53.016;-2.260;2023-11-21T08:36:43;8.30;99.90
59307;DHT22;47983;53.016;-2.260;2023-11-21T08:39:11;8.30;99.90
59307;DHT22;47983;53.016;-2.260;2023-11-21T08:41:40;8.30;99.90
59307;DHT22;47983;53.016;-2.260;2023-11-21T08:44:09;8.30;99.90
59307;DHT22;47983;53.016;-2.260;2023-11-21T08:46:36;8.30;99.90
59307;DHT22;47983;53.016;-2.260;2023-11-21T08:49:05;8.30;99.90
59307;DHT22;47983;53.016;-2.260;2023-11-21T08:51:33;8.30;99.90
59307;DHT22;47983;53.016;-2.260;2023-11-21T08:54:01;8.40;99.90
59307;DHT22;47983;53.016;-2.260;2023-11-21T08:56:32;8.40;99.90
59307;DHT22;47983;53.016;-2.260;2023-11-21T08:58:59;8.40;99.90
59307;DHT22;47983;53.016;-2.260;2023-11-21T09:01:30;8.40;99.90
59307;DHT22;47983;53.016;-2.260;2023-11-21T09:04:01;8.40;99.90
59307;DHT22;47983;53.016;-2.260;2023-11-21T09:06:30;8.40;99.90
59307;DHT22;47983;53.016;-2.260;2023-11-21T09:08:57;8.50;99.90
59307;DHT22;47983;53.016;-2.260;2023-11-21T09:11:25;8.50;99.90
59307;DHT22;47983;53.016;-2.260;2023-11-21T09:13:58;8.50;99.90
59307;DHT22;47983;53.016;-2.260;2023-11-21T09:16:26;8.50;99.90
59307;DHT22;47983;53.016;-2.260;2023-11-21T09:18:55;8.50;99.90
59307;DHT22;47983;53.016;-2.260;2023-11-21T09:21:24;8.50;99.90
59307;DHT22;47983;53.016;-2.260;2023-11-21T09:23:52;8.50;99.90
59307;DHT22;47983;53.016;-2.260;2023-11-21T09:26:21;8.60;99.90
59307;DHT22;47983;53.016;-2.260;2023-11-21T09:28:49;8.60;99.90
59307;DHT22;47983;53.016;-2.260;2023-11-21T09:31:17;8.50;99.90
59307;DHT22;47983;53.016;-2.260;2023-11-21T09:33:47;8.60;99.90
59307;DHT22;47983;53.016;-2.260;2023-11-21T09:36:15;8.60;99.90
59307;DHT22;47983;53.016;-2.260;2023-11-21T09:38:43;8.60;99.90
59307;DHT22;47983;53.016;-2.260;2023-11-21T09:41:15;8.60;99.90
59307;DHT22;47983;53.016;-2.260;2023-11-21T09:43:47;8.60;99.90
59307;DHT22;47983;53.016;-2.260;2023-11-21T09:46:15;8.60;99.90
59307;DHT22;47983;53.016;-2.260;2023-11-21T09:48:48;8.70;99.90
59307;DHT22;47983;53.016;-2.260;2023-11-21T09:51:19;8.70;99.90
59307;DHT22;47983;53.016;-2.260;2023-11-21T09:53:48;8.70;99.90
59307;DHT22;47983;53.016;-2.260;2023-11-21T09:56:18;8.70;99.90
59307;DHT22;47983;53.016;-2.260;2023-11-21T09:58:54;8.70;99.90
59307;DHT22;47983;53.016;-2.260;2023-11-21T10:01:23;8.80;99.90
59307;DHT22;47983;53.016;-2.260;2023-11-21T10:03:52;8.80;99.90
59307;DHT22;47983;53.016;-2.260;2023-11-21T10:06:20;8.80;99.90
59307;DHT22;47983;53.016;-2.260;2023-11-21T10:08:49;8.90;99.90
59307;DHT22;47983;53.016;-2.260;2023-11-21T10:11:25;8.90;99.90
59307;DHT22;47983;53.016;-2.260;2023-11-21T10:13:55;8.90;99.90
59307;DHT22;47983;53.016;-2.260;2023-11-21T10:16:28;8.90;99.90
59307;DHT22;47983;53.016;-2.260;2023-11-21T10:18:56;9.00;99.90
59307;DHT22;47983;53.016;-2.260;2023-11-21T10:21:41;9.00;99.90
59307;DHT22;47983;53.016;-2.260;2023-11-21T10:24:09;9.00;99.90
59307;DHT22;47983;53.016;-2.260;2023-11-21T10:26:37;9.10;99.90
59307;DHT22;47983;53.016;-2.260;2023-11-21T10:29:19;9.10;99.90
59307;DHT22;47983;53.016;-2.260;2023-11-21T10:31:50;9.10;99.90
59307;DHT22;47983;53.016;-2.260;2023-11-21T10:34:19;9.20;99.90
59307;DHT22;47983;53.016;-2.260;2023-11-21T10:36:47;9.20;99.90
59307;DHT22;47983;53.016;-2.260;2023-11-21T10:39:18;9.20;99.90
59307;DHT22;47983;53.016;-2.260;2023-11-21T10:41:47;9.30;99.90
59307;DHT22;47983;53.016;-2.260;2023-11-21T10:44:15;9.30;99.90
59307;DHT22;47983;53.016;-2.260;2023-11-21T10:46:52;9.40;99.90
59307;DHT22;47983;53.016;-2.260;2023-11-21T10:49:26;9.40;99.90
59307;DHT22;47983;53.016;-2.260;2023-11-21T10:51:55;9.40;99.90
59307;DHT22;47983;53.016;-2.260;2023-11-21T10:54:24;9.30;99.90
59307;DHT22;47983;53.016;-2.260;2023-11-21T10:56:53;9.40;99.90
59307;DHT22;47983;53.016;-2.260;2023-11-21T10:59:23;9.40;99.90
59307;DHT22;47983;53.016;-2.260;2023-11-21T11:01:53;9.40;99.90
59307;DHT22;47983;53.016;-2.260;2023-11-21T11:04:22;9.40;99.90
59307;DHT22;47983;53.016;-2.260;2023-11-21T11:06:54;9.50;99.90
59307;DHT22;47983;53.016;-2.260;2023-11-21T11:09:22;9.50;99.90
59307;DHT22;47983;53.016;-2.260;2023-11-21T11:11:50;9.50;99.90
59307;DHT22;47983;53.016;-2.260;2023-11-21T11:14:18;9.50;99.90
59307;DHT22;47983;53.016;-2.260;2023-11-21T11:16:47;9.70;99.90
59307;DHT22;47983;53.016;-2.260;2023-11-21T11:19:16;9.90;99.90
59307;DHT22;47983;53.016;-2.260;2023-11-21T11:21:51;10.10;99.90
59307;DHT22;47983;53.016;-2.260;2023-11-21T11:29:43;10.60;99.90
59307;DHT22;47983;53.016;-2.260;2023-11-21T11:32:27;11.00;99.90
59307;DHT22;47983;53.016;-2.260;2023-11-21T11:35:19;11.30;99.90
59307;DHT22;47983;53.016;-2.260;2023-11-21T11:37:51;11.30;99.90
59307;DHT22;47983;53.016;-2.260;2023-11-21T11:40:20;11.20;99.90
59307;DHT22;47983;53.016;-2.260;2023-11-21T11:42:55;11.10;99.90
59307;DHT22;47983;53.016;-2.260;2023-11-21T11:45:23;11.00;99.90
59307;DHT22;47983;53.016;-2.260;2023-11-21T11:47:59;10.90;99.90
59307;DHT22;47983;53.016;-2.260;2023-11-21T11:50:28;10.70;99.90
59307;DHT22;47983;53.016;-2.260;2023-11-21T11:53:11;10.60;99.90
59307;DHT22;47983;53.016;-2.260;2023-11-21T11:55:40;10.40;99.90
59307;DHT22;47983;53.016;-2.260;2023-11-21T11:58:07;10.40;99.90
59307;DHT22;47983;53.016;-2.260;2023-11-21T12:00:37;10.50;99.90
59307;DHT22;47983;53.016;-2.260;2023-11-21T12:03:06;10.80;99.90
59307;DHT22;47983;53.016;-2.260;2023-11-21T12:05:36;11.00;99.90
59307;DHT22;47983;53.016;-2.260;2023-11-21T12:08:07;11.30;99.90
59307;DHT22;47983;53.016;-2.260;2023-11-21T12:10:36;11.40;99.90
59307;DHT22;47983;53.016;-2.260;2023-11-21T12:13:08;11.40;99.90
59307;DHT22;47983;53.016;-2.260;2023-11-21T12:15:37;11.40;99.90
59307;DHT22;47983;53.016;-2.260;2023-11-21T12:18:07;11.30;99.90
59307;DHT22;47983;53.016;-2.260;2023-11-21T12:20:35;11.60;99.90
59307;DHT22;47983;53.016;-2.260;2023-11-21T12:23:07;11.70;99.90
59307;DHT22;47983;53.016;-2.260;2023-11-21T12:25:37;11.90;99.90
59307;DHT22;47983;53.016;-2.260;2023-11-21T12:28:07;12.10;99.90
59307;DHT22;47983;53.016;-2.260;2023-11-21T12:30:36;12.10;99.90
59307;DHT22;47983;53.016;-2.260;2023-11-21T12:33:06;11.90;99.90
59307;DHT22;47983;53.016;-2.260;2023-11-21T12:35:37;11.70;99.90
59307;DHT22;47983;53.016;-2.260;2023-11-21T12:38:05;11.90;99.90
59307;DHT22;47983;53.016;-2.260;2023-11-21T12:40:33;12.50;99.90
59307;DHT22;47983;53.016;-2.260;2023-11-21T12:43:01;13.10;99.90
59307;DHT22;47983;53.016;-2.260;2023-11-21T12:45:31;13.80;99.90
59307;DHT22;47983;53.016;-2.260;2023-11-21T12:48:00;14.60;99.90
59307;DHT22;47983;53.016;-2.260;2023-11-21T12:50:30;15.30;99.90
59307;DHT22;47983;53.016;-2.260;2023-11-21T12:53:02;15.80;99.90
59307;DHT22;47983;53.016;-2.260;2023-11-21T12:55:31;16.50;99.90
59307;DHT22;47983;53.016;-2.260;2023-11-21T12:58:01;17.10;99.90
59307;DHT22;47983;53.016;-2.260;2023-11-21T13:00:36;17.40;99.90
59307;DHT22;47983;53.016;-2.260;2023-11-21T13:03:06;17.80;99.90
59307;DHT22;47983;53.016;-2.260;2023-11-21T13:05:38;18.00;99.90
59307;DHT22;47983;53.016;-2.260;2023-11-21T13:08:07;18.20;99.90
59307;DHT22;47983;53.016;-2.260;2023-11-21T13:10:36;18.50;99.90
59307;DHT22;47983;53.016;-2.260;2023-11-21T13:13:04;18.80;99.90
59307;DHT22;47983;53.016;-2.260;2023-11-21T13:15:33;18.90;99.90
59307;DHT22;47983;53.016;-2.260;2023-11-21T13:18:02;19.20;99.90
59307;DHT22;47983;53.016;-2.260;2023-11-21T13:20:31;19.40;99.90
59307;DHT22;47983;53.016;-2.260;2023-11-21T13:22:59;19.60;99.90
59307;DHT22;47983;53.016;-2.260;2023-11-21T13:25:28;19.70;99.90
59307;DHT22;47983;53.016;-2.260;2023-11-21T13:27:59;19.20;99.90
59307;DHT22;47983;53.016;-2.260;2023-11-21T13:30:28;18.80;99.90
59307;DHT22;47983;53.016;-2.260;2023-11-21T13:33:01;18.30;99.90
59307;DHT22;47983;53.016;-2.260;2023-11-21T13:35:29;18.00;99.90
59307;DHT22;47983;53.016;-2.260;2023-11-21T13:38:04;17.40;99.90
59307;DHT22;47983;53.016;-2.260;2023-11-21T13:40:33;16.90;99.90
59307;DHT22;47983;53.016;-2.260;2023-11-21T13:43:10;16.50;99.90
59307;DHT22;47983;53.016;-2.260;2023-11-21T13:45:41;16.00;99.90
59307;DHT22;47983;53.016;-2.260;2023-11-21T13:48:15;15.50;99.90
59307;DHT22;47983;53.016;-2.260;2023-11-21T13:50:46;15.00;99.90
59307;DHT22;47983;53.016;-2.260;2023-11-21T13:53:22;14.50;99.90
59307;DHT22;47983;53.016;-2.260;2023-11-21T13:55:50;14.00;99.90
59307;DHT22;47983;53.016;-2.260;2023-11-21T13:58:21;13.50;99.90
59307;DHT22;47983;53.016;-2.260;2023-11-21T14:01:07;13.10;99.90
59307;DHT22;47983;53.016;-2.260;2023-11-21T14:03:52;12.70;99.90
59307;DHT22;47983;53.016;-2.260;2023-11-21T14:06:25;12.30;99.90
59307;DHT22;47983;53.016;-2.260;2023-11-21T14:09:01;12.00;99.90
59307;DHT22;47983;53.016;-2.260;2023-11-21T14:11:33;11.80;99.90
59307;DHT22;47983;53.016;-2.260;2023-11-21T14:14:12;11.60;99.90
59307;DHT22;47983;53.016;-2.260;2023-11-21T14:16:41;11.40;99.90
59307;DHT22;47983;53.016;-2.260;2023-11-21T14:19:10;11.30;99.90
59307;DHT22;47983;53.016;-2.260;2023-11-21T14:21:47;11.20;99.90
59307;DHT22;47983;53.016;-2.260;2023-11-21T14:24:16;11.10;99.90
59307;DHT22;47983;53.016;-2.260;2023-11-21T14:26:46;11.00;99.90
59307;DHT22;47983;53.016;-2.260;2023-11-21T14:29:16;10.80;99.90
59307;DHT22;47983;53.016;-2.260;2023-11-21T14:31:47;10.70;99.90
59307;DHT22;47983;53.016;-2.260;2023-11-21T14:34:16;10.60;99.90
59307;DHT22;47983;53.016;-2.260;2023-11-21T14:36:48;10.50;99.90
59307;DHT22;47983;53.016;-2.260;2023-11-21T14:39:17;10.30;99.90
59307;DHT22;47983;53.016;-2.260;2023-11-21T14:41:52;10.30;99.90
59307;DHT22;47983;53.016;-2.260;2023-11-21T14:44:27;10.20;99.90
59307;DHT22;47983;53.016;-2.260;2023-11-21T14:47:00;10.10;99.90
59307;DHT22;47983;53.016;-2.260;2023-11-21T14:49:33;9.90;99.90
59307;DHT22;47983;53.016;-2.260;2023-11-21T14:52:17;9.90;99.90
59307;DHT22;47983;53.016;-2.260;2023-11-21T14:55:00;9.80;99.90
59307;DHT22;47983;53.016;-2.260;2023-11-21T14:57:47;9.70;99.90
59307;DHT22;47983;53.016;-2.260;2023-11-21T15:00:19;9.70;99.90
59307;DHT22;47983;53.016;-2.260;2023-11-21T15:03:19;9.70;99.90
59307;DHT22;47983;53.016;-2.260;2023-11-21T15:06:04;9.60;99.90
59307;DHT22;47983;53.016;-2.260;2023-11-21T15:08:54;9.60;99.90
59307;DHT22;47983;53.016;-2.260;2023-11-21T15:11:34;9.60;99.90
59307;DHT22;47983;53.016;-2.260;2023-11-21T15:14:02;9.60;99.90
59307;DHT22;47983;53.016;-2.260;2023-11-21T15:16:37;9.60;99.90
59307;DHT22;47983;53.016;-2.260;2023-11-21T15:19:08;9.60;99.90
59307;DHT22;47983;53.016;-2.260;2023-11-21T15:21:36;9.60;99.90
59307;DHT22;47983;53.016;-2.260;2023-11-21T15:24:04;9.50;99.90
59307;DHT22;47983;53.016;-2.260;2023-11-21T15:26:33;9.50;99.90
59307;DHT22;47983;53.016;-2.260;2023-11-21T15:29:01;9.50;99.90
59307;DHT22;47983;53.016;-2.260;2023-11-21T15:31:29;9.40;99.90
59307;DHT22;47983;53.016;-2.260;2023-11-21T15:33:58;9.50;99.90
59307;DHT22;47983;53.016;-2.260;2023-11-21T15:36:27;9.50;99.90
59307;DHT22;47983;53.016;-2.260;2023-11-21T15:38:55;9.40;99.90
59307;DHT22;47983;53.016;-2.260;2023-11-21T15:41:24;9.40;99.90
59307;DHT22;47983;53.016;-2.260;2023-11-21T15:43:52;9.40;99.90
59307;DHT22;47983;53.016;-2.260;2023-11-21T15:46:19;9.40;99.90
59307;DHT22;47983;53.016;-2.260;2023-11-21T15:48:47;9.40;99.90